sensor_id;sensor_type;location;lat;lon;timestamp;P1;durP1;ratioP1;P2;durP2;ratioP2
3791;SDS011;1911;53.768;11.474;2022-07-22T00:01:28;12.23;;;10.93;;
3791;SDS011;1911;53.768;11.474;2022-07-22T00:03:54;15.53;;;12.37;;
3791;SDS011;1911;53.768;11.474;2022-07-22T00:06:20;15.10;;;12.43;;
3791;SDS011;1911;53.768;11.474;2022-07-22T00:08:46;14.80;;;12.30;;
3791;SDS011;1911;53.768;11.474;2022-07-22T00:11:11;13.77;;;12.27;;
3791;SDS011;1911;53.768;11.474;2022-07-22T00:13:37;15.93;;;12.60;;
3791;SDS011;1911;53.768;11.474;2022-07-22T00:16:03;16.10;;;13.70;;
3791;SDS011;1911;53.768;11.474;2022-07-22T00:18:29;16.00;;;14.40;;
3791;SDS011;1911;53.768;11.474;2022-07-22T00:20:55;15.87;;;14.03;;
3791;SDS011;1911;53.768;11.474;2022-07-22T00:23:21;21.07;;;13.83;;
3791;SDS011;1911;53.768;11.474;2022-07-22T00:25:46;17.03;;;14.73;;
3791;SDS011;1911;53.768;11.474;2022-07-22T00:28:12;21.70;;;14.10;;
3791;SDS011;1911;53.768;11.474;2022-07-22T00:30:38;17.70;;;13.10;;
3791;SDS011;1911;53.768;11.474;2022-07-22T00:33:03;16.67;;;13.50;;
3791;SDS011;1911;53.768;11.474;2022-07-22T00:35:29;15.17;;;12.73;;
3791;SDS011;1911;53.768;11.474;2022-07-22T00:37:54;20.50;;;13.97;;
3791;SDS011;1911;53.768;11.474;2022-07-22T00:40:20;20.03;;;13.87;;
3791;SDS011;1911;53.768;11.474;2022-07-22T00:42:46;19.97;;;13.47;;
3791;SDS011;1911;53.768;11.474;2022-07-22T00:45:12;16.00;;;14.10;;
3791;SDS011;1911;53.768;11.474;2022-07-22T00:47:37;21.47;;;15.47;;
3791;SDS011;1911;53.768;11.474;2022-07-22T00:50:04;17.83;;;15.23;;
3791;SDS011;1911;53.768;11.474;2022-07-22T00:52:30;19.00;;;13.87;;
3791;SDS011;1911;53.768;11.474;2022-07-22T00:54:58;20.53;;;14.77;;
3791;SDS011;1911;53.768;11.474;2022-07-22T00:57:24;15.83;;;13.73;;
3791;SDS011;1911;53.768;11.474;2022-07-22T00:59:49;20.97;;;16.17;;
3791;SDS011;1911;53.768;11.474;2022-07-22T01:02:15;23.50;;;15.93;;
3791;SDS011;1911;53.768;11.474;2022-07-22T01:04:41;21.90;;;15.57;;
3791;SDS011;1911;53.768;11.474;2022-07-22T01:07:07;19.00;;;15.93;;
3791;SDS011;1911;53.768;11.474;2022-07-22T01:09:33;21.50;;;16.60;;
3791;SDS011;1911;53.768;11.474;2022-07-22T01:12:00;21.17;;;15.47;;
3791;SDS011;1911;53.768;11.474;2022-07-22T01:14:26;22.37;;;17.13;;
3791;SDS011;1911;53.768;11.474;2022-07-22T01:16:51;27.23;;;19.00;;
3791;SDS011;1911;53.768;11.474;2022-07-22T01:19:17;23.97;;;17.97;;
3791;SDS011;1911;53.768;11.474;2022-07-22T01:21:43;24.80;;;18.93;;
3791;SDS011;1911;53.768;11.474;2022-07-22T01:24:08;21.27;;;18.57;;
3791;SDS011;1911;53.768;11.474;2022-07-22T01:26:34;22.43;;;18.03;;
3791;SDS011;1911;53.768;11.474;2022-07-22T01:29:00;22.30;;;17.53;;
3791;SDS011;1911;53.768;11.474;2022-07-22T01:31:25;24.40;;;18.33;;
3791;SDS011;1911;53.768;11.474;2022-07-22T01:33:52;22.60;;;18.03;;
3791;SDS011;1911;53.768;11.474;2022-07-22T01:36:19;25.20;;;18.73;;
3791;SDS011;1911;53.768;11.474;2022-07-22T01:38:44;21.87;;;18.50;;
3791;SDS011;1911;53.768;11.474;2022-07-22T01:41:10;24.53;;;18.47;;
3791;SDS011;1911;53.768;11.474;2022-07-22T01:43:36;22.60;;;18.10;;
3791;SDS011;1911;53.768;11.474;2022-07-22T01:46:02;20.77;;;18.07;;
3791;SDS011;1911;53.768;11.474;2022-07-22T01:48:28;28.27;;;19.47;;
3791;SDS011;1911;53.768;11.474;2022-07-22T01:50:54;26.70;;;19.50;;
3791;SDS011;1911;53.768;11.474;2022-07-22T01:53:20;23.00;;;18.50;;
3791;SDS011;1911;53.768;11.474;2022-07-22T01:55:45;23.90;;;18.60;;
3791;SDS011;1911;53.768;11.474;2022-07-22T01:58:11;35.40;;;20.70;;
3791;SDS011;1911;53.768;11.474;2022-07-22T02:00:37;25.10;;;17.27;;
3791;SDS011;1911;53.768;11.474;2022-07-22T02:03:03;27.97;;;19.30;;
3791;SDS011;1911;53.768;11.474;2022-07-22T02:05:29;26.23;;;19.97;;
3791;SDS011;1911;53.768;11.474;2022-07-22T02:08:01;29.73;;;19.60;;
3791;SDS011;1911;53.768;11.474;2022-07-22T02:10:33;26.83;;;20.23;;
3791;SDS011;1911;53.768;11.474;2022-07-22T02:12:59;25.03;;;19.60;;
3791;SDS011;1911;53.768;11.474;2022-07-22T02:15:25;25.53;;;19.17;;
3791;SDS011;1911;53.768;11.474;2022-07-22T02:17:52;21.30;;;19.00;;
3791;SDS011;1911;53.768;11.474;2022-07-22T02:20:18;24.40;;;20.20;;
3791;SDS011;1911;53.768;11.474;2022-07-22T02:22:43;26.87;;;19.27;;
3791;SDS011;1911;53.768;11.474;2022-07-22T02:25:11;26.17;;;20.40;;
3791;SDS011;1911;53.768;11.474;2022-07-22T02:27:37;25.07;;;19.63;;
3791;SDS011;1911;53.768;11.474;2022-07-22T02:30:03;27.20;;;19.30;;
3791;SDS011;1911;53.768;11.474;2022-07-22T02:32:30;29.80;;;20.50;;
3791;SDS011;1911;53.768;11.474;2022-07-22T02:34:56;25.60;;;20.70;;
3791;SDS011;1911;53.768;11.474;2022-07-22T02:37:22;30.43;;;20.90;;
3791;SDS011;1911;53.768;11.474;2022-07-22T02:39:49;34.83;;;21.20;;
3791;SDS011;1911;53.768;11.474;2022-07-22T02:42:14;27.90;;;20.20;;
3791;SDS011;1911;53.768;11.474;2022-07-22T02:44:40;28.60;;;22.60;;
3791;SDS011;1911;53.768;11.474;2022-07-22T02:47:06;25.63;;;21.80;;
3791;SDS011;1911;53.768;11.474;2022-07-22T02:49:32;28.00;;;22.40;;
3791;SDS011;1911;53.768;11.474;2022-07-22T02:51:57;27.90;;;21.63;;
3791;SDS011;1911;53.768;11.474;2022-07-22T02:54:23;32.63;;;24.33;;
3791;SDS011;1911;53.768;11.474;2022-07-22T02:56:49;34.23;;;24.00;;
3791;SDS011;1911;53.768;11.474;2022-07-22T02:59:15;32.60;;;24.70;;
3791;SDS011;1911;53.768;11.474;2022-07-22T03:01:40;38.67;;;24.40;;
3791;SDS011;1911;53.768;11.474;2022-07-22T03:04:06;31.60;;;23.30;;
3791;SDS011;1911;53.768;11.474;2022-07-22T03:06:31;36.83;;;24.10;;
3791;SDS011;1911;53.768;11.474;2022-07-22T03:08:57;34.63;;;24.90;;
3791;SDS011;1911;53.768;11.474;2022-07-22T03:11:23;32.27;;;25.13;;
3791;SDS011;1911;53.768;11.474;2022-07-22T03:13:48;37.80;;;26.80;;
3791;SDS011;1911;53.768;11.474;2022-07-22T03:16:14;29.43;;;23.03;;
3791;SDS011;1911;53.768;11.474;2022-07-22T03:18:39;41.80;;;27.23;;
3791;SDS011;1911;53.768;11.474;2022-07-22T03:21:05;43.40;;;27.70;;
3791;SDS011;1911;53.768;11.474;2022-07-22T03:23:30;36.00;;;25.40;;
3791;SDS011;1911;53.768;11.474;2022-07-22T03:25:56;36.50;;;24.80;;
3791;SDS011;1911;53.768;11.474;2022-07-22T03:28:22;35.87;;;24.67;;
3791;SDS011;1911;53.768;11.474;2022-07-22T03:30:48;32.17;;;24.93;;
3791;SDS011;1911;53.768;11.474;2022-07-22T03:33:13;35.40;;;24.90;;
3791;SDS011;1911;53.768;11.474;2022-07-22T03:35:39;33.83;;;26.37;;
3791;SDS011;1911;53.768;11.474;2022-07-22T03:38:05;34.47;;;24.57;;
3791;SDS011;1911;53.768;11.474;2022-07-22T03:40:30;32.70;;;24.53;;
3791;SDS011;1911;53.768;11.474;2022-07-22T03:42:56;36.30;;;25.43;;
3791;SDS011;1911;53.768;11.474;2022-07-22T03:45:22;37.57;;;26.83;;
3791;SDS011;1911;53.768;11.474;2022-07-22T03:47:47;36.80;;;25.83;;
3791;SDS011;1911;53.768;11.474;2022-07-22T03:50:13;35.60;;;26.60;;
3791;SDS011;1911;53.768;11.474;2022-07-22T03:52:38;35.77;;;25.60;;
3791;SDS011;1911;53.768;11.474;2022-07-22T03:55:05;39.73;;;26.23;;
3791;SDS011;1911;53.768;11.474;2022-07-22T03:57:31;37.53;;;27.27;;
3791;SDS011;1911;53.768;11.474;2022-07-22T03:59:57;36.50;;;27.53;;
3791;SDS011;1911;53.768;11.474;2022-07-22T04:02:22;18.80;;;14.03;;
3791;SDS011;1911;53.768;11.474;2022-07-22T04:04:48;9.17;;;6.47;;
3791;SDS011;1911;53.768;11.474;2022-07-22T04:07:13;4.10;;;3.23;;
3791;SDS011;1911;53.768;11.474;2022-07-22T04:09:39;5.13;;;2.80;;
3791;SDS011;1911;53.768;11.474;2022-07-22T04:12:05;5.90;;;2.37;;
3791;SDS011;1911;53.768;11.474;2022-07-22T04:14:30;8.00;;;2.90;;
3791;SDS011;1911;53.768;11.474;2022-07-22T04:16:56;3.30;;;2.20;;
3791;SDS011;1911;53.768;11.474;2022-07-22T04:19:22;3.23;;;1.80;;
3791;SDS011;1911;53.768;11.474;2022-07-22T04:21:47;3.40;;;2.00;;
3791;SDS011;1911;53.768;11.474;2022-07-22T04:24:13;1.90;;;1.67;;
3791;SDS011;1911;53.768;11.474;2022-07-22T04:26:38;2.70;;;1.97;;
3791;SDS011;1911;53.768;11.474;2022-07-22T04:29:04;2.83;;;2.23;;
3791;SDS011;1911;53.768;11.474;2022-07-22T04:31:30;3.20;;;2.10;;
3791;SDS011;1911;53.768;11.474;2022-07-22T04:33:56;2.87;;;2.30;;
3791;SDS011;1911;53.768;11.474;2022-07-22T04:36:23;3.90;;;2.40;;
3791;SDS011;1911;53.768;11.474;2022-07-22T04:38:48;3.57;;;2.03;;
3791;SDS011;1911;53.768;11.474;2022-07-22T04:41:14;3.33;;;2.50;;
3791;SDS011;1911;53.768;11.474;2022-07-22T04:43:40;8.30;;;3.23;;
3791;SDS011;1911;53.768;11.474;2022-07-22T04:46:06;4.07;;;2.70;;
3791;SDS011;1911;53.768;11.474;2022-07-22T04:48:31;3.90;;;2.20;;
3791;SDS011;1911;53.768;11.474;2022-07-22T04:51:00;5.33;;;2.50;;
3791;SDS011;1911;53.768;11.474;2022-07-22T04:53:26;10.23;;;3.10;;
3791;SDS011;1911;53.768;11.474;2022-07-22T04:55:53;8.23;;;3.30;;
3791;SDS011;1911;53.768;11.474;2022-07-22T04:58:19;7.63;;;3.10;;
3791;SDS011;1911;53.768;11.474;2022-07-22T05:00:45;6.00;;;3.00;;
3791;SDS011;1911;53.768;11.474;2022-07-22T05:03:12;4.00;;;2.40;;
3791;SDS011;1911;53.768;11.474;2022-07-22T05:05:38;4.70;;;2.60;;
3791;SDS011;1911;53.768;11.474;2022-07-22T05:08:04;12.10;;;3.40;;
3791;SDS011;1911;53.768;11.474;2022-07-22T05:10:30;7.50;;;3.27;;
3791;SDS011;1911;53.768;11.474;2022-07-22T05:12:56;4.60;;;2.60;;
3791;SDS011;1911;53.768;11.474;2022-07-22T05:15:22;3.73;;;2.63;;
3791;SDS011;1911;53.768;11.474;2022-07-22T05:17:48;5.17;;;2.50;;
3791;SDS011;1911;53.768;11.474;2022-07-22T05:20:13;3.53;;;2.70;;
3791;SDS011;1911;53.768;11.474;2022-07-22T05:22:41;5.60;;;2.73;;
3791;SDS011;1911;53.768;11.474;2022-07-22T05:25:06;5.97;;;3.30;;
3791;SDS011;1911;53.768;11.474;2022-07-22T05:27:32;6.50;;;3.23;;
3791;SDS011;1911;53.768;11.474;2022-07-22T05:29:58;6.23;;;2.93;;
3791;SDS011;1911;53.768;11.474;2022-07-22T05:32:24;10.23;;;2.90;;
3791;SDS011;1911;53.768;11.474;2022-07-22T05:34:49;10.57;;;2.77;;
3791;SDS011;1911;53.768;11.474;2022-07-22T05:37:15;6.70;;;2.17;;
3791;SDS011;1911;53.768;11.474;2022-07-22T05:39:41;6.67;;;3.60;;
3791;SDS011;1911;53.768;11.474;2022-07-22T05:42:08;3.70;;;2.50;;
3791;SDS011;1911;53.768;11.474;2022-07-22T05:44:33;7.10;;;2.70;;
3791;SDS011;1911;53.768;11.474;2022-07-22T05:46:59;6.30;;;3.07;;
3791;SDS011;1911;53.768;11.474;2022-07-22T13:03:53;5.90;;;1.73;;
3791;SDS011;1911;53.768;11.474;2022-07-22T13:06:19;5.90;;;2.30;;
3791;SDS011;1911;53.768;11.474;2022-07-22T13:21:44;4.70;;;2.27;;
3791;SDS011;1911;53.768;11.474;2022-07-22T13:24:10;4.53;;;1.50;;
3791;SDS011;1911;53.768;11.474;2022-07-22T13:49:02;4.67;;;2.33;;
3791;SDS011;1911;53.768;11.474;2022-07-22T13:52:07;4.80;;;2.23;;
3791;SDS011;1911;53.768;11.474;2022-07-22T14:02:13;6.03;;;1.97;;
3791;SDS011;1911;53.768;11.474;2022-07-22T14:04:53;6.33;;;2.60;;
3791;SDS011;1911;53.768;11.474;2022-07-22T14:26:42;5.83;;;2.10;;
3791;SDS011;1911;53.768;11.474;2022-07-22T15:55:50;3.57;;;1.80;;
3791;SDS011;1911;53.768;11.474;2022-07-22T15:58:15;3.20;;;1.60;;
3791;SDS011;1911;53.768;11.474;2022-07-22T16:04:04;5.20;;;4.00;;
3791;SDS011;1911;53.768;11.474;2022-07-22T16:06:30;8.30;;;4.00;;
3791;SDS011;1911;53.768;11.474;2022-07-22T16:08:56;5.70;;;2.60;;
3791;SDS011;1911;53.768;11.474;2022-07-22T16:11:39;5.33;;;2.40;;
3791;SDS011;1911;53.768;11.474;2022-07-22T16:15:08;5.20;;;1.70;;
3791;SDS011;1911;53.768;11.474;2022-07-22T16:20:56;2.50;;;1.37;;
3791;SDS011;1911;53.768;11.474;2022-07-22T16:23:24;8.70;;;1.80;;
3791;SDS011;1911;53.768;11.474;2022-07-22T16:25:49;7.53;;;1.87;;
3791;SDS011;1911;53.768;11.474;2022-07-22T16:34:04;5.53;;;2.30;;
3791;SDS011;1911;53.768;11.474;2022-07-22T16:48:59;3.93;;;2.20;;
3791;SDS011;1911;53.768;11.474;2022-07-22T17:08:28;5.27;;;1.60;;
3791;SDS011;1911;53.768;11.474;2022-07-22T17:18:19;3.67;;;2.10;;
3791;SDS011;1911;53.768;11.474;2022-07-22T17:24:38;5.43;;;2.30;;
3791;SDS011;1911;53.768;11.474;2022-07-22T17:44:04;5.10;;;1.87;;
3791;SDS011;1911;53.768;11.474;2022-07-22T17:56:43;4.47;;;1.80;;
3791;SDS011;1911;53.768;11.474;2022-07-22T17:59:12;2.97;;;1.60;;
3791;SDS011;1911;53.768;11.474;2022-07-22T18:08:18;6.37;;;2.00;;
3791;SDS011;1911;53.768;11.474;2022-07-22T18:10:44;6.00;;;1.80;;
3791;SDS011;1911;53.768;11.474;2022-07-22T18:24:49;6.13;;;2.43;;
3791;SDS011;1911;53.768;11.474;2022-07-22T18:27:16;8.93;;;2.20;;
3791;SDS011;1911;53.768;11.474;2022-07-22T18:29:42;3.73;;;1.50;;
3791;SDS011;1911;53.768;11.474;2022-07-22T18:32:08;1.80;;;1.40;;
3791;SDS011;1911;53.768;11.474;2022-07-22T18:34:33;2.70;;;1.60;;
3791;SDS011;1911;53.768;11.474;2022-07-22T18:36:59;8.80;;;2.40;;
3791;SDS011;1911;53.768;11.474;2022-07-22T18:39:25;5.00;;;2.30;;
3791;SDS011;1911;53.768;11.474;2022-07-22T18:41:51;7.67;;;2.33;;
3791;SDS011;1911;53.768;11.474;2022-07-22T18:44:16;5.70;;;2.50;;
3791;SDS011;1911;53.768;11.474;2022-07-22T18:46:45;6.93;;;2.27;;
3791;SDS011;1911;53.768;11.474;2022-07-22T18:49:20;6.80;;;2.57;;
3791;SDS011;1911;53.768;11.474;2022-07-22T18:51:55;4.27;;;1.60;;
3791;SDS011;1911;53.768;11.474;2022-07-22T18:54:22;3.40;;;1.80;;
3791;SDS011;1911;53.768;11.474;2022-07-22T18:56:58;6.10;;;1.83;;
3791;SDS011;1911;53.768;11.474;2022-07-22T18:59:27;4.90;;;1.70;;
3791;SDS011;1911;53.768;11.474;2022-07-22T19:02:01;5.27;;;1.87;;
3791;SDS011;1911;53.768;11.474;2022-07-22T19:04:50;6.43;;;1.67;;
3791;SDS011;1911;53.768;11.474;2022-07-22T19:07:39;2.47;;;1.47;;
3791;SDS011;1911;53.768;11.474;2022-07-22T19:10:32;3.50;;;1.50;;
3791;SDS011;1911;53.768;11.474;2022-07-22T19:25:05;3.83;;;1.80;;
3791;SDS011;1911;53.768;11.474;2022-07-22T19:29:07;3.83;;;1.87;;
3791;SDS011;1911;53.768;11.474;2022-07-22T19:31:33;4.27;;;2.40;;
3791;SDS011;1911;53.768;11.474;2022-07-22T19:33:59;3.83;;;1.80;;
3791;SDS011;1911;53.768;11.474;2022-07-22T19:36:25;2.80;;;2.17;;
3791;SDS011;1911;53.768;11.474;2022-07-22T19:38:53;2.30;;;1.63;;
3791;SDS011;1911;53.768;11.474;2022-07-22T19:41:18;4.67;;;1.30;;
3791;SDS011;1911;53.768;11.474;2022-07-22T19:43:44;4.80;;;2.33;;
3791;SDS011;1911;53.768;11.474;2022-07-22T19:46:10;2.20;;;1.30;;
3791;SDS011;1911;53.768;11.474;2022-07-22T19:48:35;4.77;;;2.20;;
3791;SDS011;1911;53.768;11.474;2022-07-22T19:51:01;6.10;;;2.23;;
3791;SDS011;1911;53.768;11.474;2022-07-22T19:53:27;4.00;;;2.07;;
3791;SDS011;1911;53.768;11.474;2022-07-22T19:55:52;4.70;;;1.87;;
3791;SDS011;1911;53.768;11.474;2022-07-22T19:58:18;5.80;;;1.90;;
3791;SDS011;1911;53.768;11.474;2022-07-22T20:00:45;7.30;;;2.53;;
3791;SDS011;1911;53.768;11.474;2022-07-22T20:03:11;5.67;;;1.77;;
3791;SDS011;1911;53.768;11.474;2022-07-22T20:05:37;3.63;;;1.67;;
3791;SDS011;1911;53.768;11.474;2022-07-22T20:08:02;3.77;;;1.57;;
3791;SDS011;1911;53.768;11.474;2022-07-22T20:10:28;3.10;;;1.60;;
3791;SDS011;1911;53.768;11.474;2022-07-22T20:12:54;7.43;;;1.63;;
3791;SDS011;1911;53.768;11.474;2022-07-22T20:15:20;5.63;;;1.57;;
3791;SDS011;1911;53.768;11.474;2022-07-22T20:17:47;6.13;;;1.70;;
3791;SDS011;1911;53.768;11.474;2022-07-22T20:20:13;4.23;;;1.83;;
3791;SDS011;1911;53.768;11.474;2022-07-22T20:22:38;6.27;;;2.03;;
3791;SDS011;1911;53.768;11.474;2022-07-22T20:25:04;6.60;;;1.80;;
3791;SDS011;1911;53.768;11.474;2022-07-22T20:27:30;4.40;;;2.07;;
3791;SDS011;1911;53.768;11.474;2022-07-22T20:29:55;5.03;;;1.90;;
3791;SDS011;1911;53.768;11.474;2022-07-22T20:32:21;7.10;;;2.40;;
3791;SDS011;1911;53.768;11.474;2022-07-22T20:34:46;8.67;;;1.90;;
3791;SDS011;1911;53.768;11.474;2022-07-22T20:37:12;3.17;;;1.40;;
3791;SDS011;1911;53.768;11.474;2022-07-22T20:39:38;2.90;;;1.70;;
3791;SDS011;1911;53.768;11.474;2022-07-22T20:42:03;3.20;;;2.27;;
3791;SDS011;1911;53.768;11.474;2022-07-22T20:44:29;6.77;;;1.63;;
3791;SDS011;1911;53.768;11.474;2022-07-22T20:46:55;5.80;;;2.40;;
3791;SDS011;1911;53.768;11.474;2022-07-22T20:49:20;4.57;;;1.87;;
3791;SDS011;1911;53.768;11.474;2022-07-22T20:51:46;4.90;;;1.87;;
3791;SDS011;1911;53.768;11.474;2022-07-22T20:54:11;3.80;;;1.83;;
3791;SDS011;1911;53.768;11.474;2022-07-22T20:56:37;4.47;;;2.23;;
3791;SDS011;1911;53.768;11.474;2022-07-22T20:59:03;4.97;;;2.20;;
3791;SDS011;1911;53.768;11.474;2022-07-22T21:01:28;4.20;;;2.30;;
3791;SDS011;1911;53.768;11.474;2022-07-22T21:03:54;4.57;;;2.47;;
3791;SDS011;1911;53.768;11.474;2022-07-22T21:06:19;3.40;;;2.13;;
3791;SDS011;1911;53.768;11.474;2022-07-22T21:08:45;9.50;;;2.40;;
3791;SDS011;1911;53.768;11.474;2022-07-22T21:11:11;6.80;;;2.53;;
3791;SDS011;1911;53.768;11.474;2022-07-22T21:13:36;3.13;;;1.60;;
3791;SDS011;1911;53.768;11.474;2022-07-22T21:16:02;6.23;;;2.10;;
3791;SDS011;1911;53.768;11.474;2022-07-22T21:18:28;4.90;;;2.07;;
3791;SDS011;1911;53.768;11.474;2022-07-22T21:20:54;11.30;;;6.23;;
3791;SDS011;1911;53.768;11.474;2022-07-22T21:23:19;3.80;;;2.43;;
3791;SDS011;1911;53.768;11.474;2022-07-22T21:25:45;6.10;;;2.13;;
3791;SDS011;1911;53.768;11.474;2022-07-22T21:28:11;4.47;;;1.90;;
3791;SDS011;1911;53.768;11.474;2022-07-22T21:30:38;7.50;;;1.93;;
3791;SDS011;1911;53.768;11.474;2022-07-22T21:33:04;4.13;;;1.90;;
3791;SDS011;1911;53.768;11.474;2022-07-22T21:35:31;7.43;;;2.00;;
3791;SDS011;1911;53.768;11.474;2022-07-22T21:37:57;3.70;;;1.97;;
3791;SDS011;1911;53.768;11.474;2022-07-22T21:40:22;3.03;;;1.70;;
3791;SDS011;1911;53.768;11.474;2022-07-22T21:42:49;10.50;;;3.30;;
3791;SDS011;1911;53.768;11.474;2022-07-22T21:45:15;4.90;;;2.10;;
3791;SDS011;1911;53.768;11.474;2022-07-22T21:47:40;6.53;;;2.60;;
3791;SDS011;1911;53.768;11.474;2022-07-22T21:50:06;3.10;;;2.20;;
3791;SDS011;1911;53.768;11.474;2022-07-22T21:52:32;5.10;;;1.80;;
3791;SDS011;1911;53.768;11.474;2022-07-22T21:54:58;5.57;;;1.90;;
3791;SDS011;1911;53.768;11.474;2022-07-22T21:57:23;3.90;;;1.60;;
3791;SDS011;1911;53.768;11.474;2022-07-22T21:59:49;3.60;;;1.73;;
3791;SDS011;1911;53.768;11.474;2022-07-22T22:02:14;3.10;;;1.83;;
3791;SDS011;1911;53.768;11.474;2022-07-22T22:04:40;5.87;;;1.70;;
3791;SDS011;1911;53.768;11.474;2022-07-22T22:07:05;4.17;;;2.37;;
3791;SDS011;1911;53.768;11.474;2022-07-22T22:09:31;3.10;;;1.67;;
3791;SDS011;1911;53.768;11.474;2022-07-22T22:11:57;4.37;;;2.13;;
3791;SDS011;1911;53.768;11.474;2022-07-22T22:14:23;2.30;;;1.57;;
3791;SDS011;1911;53.768;11.474;2022-07-22T22:16:49;3.80;;;1.70;;
3791;SDS011;1911;53.768;11.474;2022-07-22T22:19:14;2.63;;;1.73;;
3791;SDS011;1911;53.768;11.474;2022-07-22T22:21:40;7.37;;;2.20;;
3791;SDS011;1911;53.768;11.474;2022-07-22T22:24:06;7.27;;;3.17;;
3791;SDS011;1911;53.768;11.474;2022-07-22T22:26:36;5.17;;;2.40;;
3791;SDS011;1911;53.768;11.474;2022-07-22T22:29:03;8.10;;;3.23;;
3791;SDS011;1911;53.768;11.474;2022-07-22T22:31:29;5.50;;;2.60;;
3791;SDS011;1911;53.768;11.474;2022-07-22T22:33:55;4.23;;;2.40;;
3791;SDS011;1911;53.768;11.474;2022-07-22T22:36:21;5.03;;;1.80;;
3791;SDS011;1911;53.768;11.474;2022-07-22T22:38:46;3.60;;;2.30;;
3791;SDS011;1911;53.768;11.474;2022-07-22T22:41:12;3.50;;;2.00;;
3791;SDS011;1911;53.768;11.474;2022-07-22T22:43:38;3.93;;;1.73;;
3791;SDS011;1911;53.768;11.474;2022-07-22T22:46:04;4.20;;;1.70;;
3791;SDS011;1911;53.768;11.474;2022-07-22T22:48:29;3.30;;;1.90;;
3791;SDS011;1911;53.768;11.474;2022-07-22T22:50:55;3.40;;;1.60;;
3791;SDS011;1911;53.768;11.474;2022-07-22T22:53:21;6.20;;;2.43;;
3791;SDS011;1911;53.768;11.474;2022-07-22T22:55:47;6.40;;;1.93;;
3791;SDS011;1911;53.768;11.474;2022-07-22T22:58:12;3.90;;;2.07;;
3791;SDS011;1911;53.768;11.474;2022-07-22T23:00:38;6.57;;;2.10;;
3791;SDS011;1911;53.768;11.474;2022-07-22T23:03:03;3.97;;;1.90;;
3791;SDS011;1911;53.768;11.474;2022-07-22T23:05:33;2.80;;;2.07;;
3791;SDS011;1911;53.768;11.474;2022-07-22T23:08:02;3.73;;;2.13;;
3791;SDS011;1911;53.768;11.474;2022-07-22T23:10:29;5.63;;;2.77;;
3791;SDS011;1911;53.768;11.474;2022-07-22T23:12:54;4.93;;;2.07;;
3791;SDS011;1911;53.768;11.474;2022-07-22T23:15:20;4.33;;;2.00;;
3791;SDS011;1911;53.768;11.474;2022-07-22T23:17:46;5.30;;;2.07;;
3791;SDS011;1911;53.768;11.474;2022-07-22T23:20:11;3.80;;;1.87;;
3791;SDS011;1911;53.768;11.474;2022-07-22T23:22:37;2.50;;;1.80;;
3791;SDS011;1911;53.768;11.474;2022-07-22T23:25:03;3.50;;;1.73;;
3791;SDS011;1911;53.768;11.474;2022-07-22T23:27:29;3.27;;;1.70;;
3791;SDS011;1911;53.768;11.474;2022-07-22T23:29:55;5.50;;;1.57;;
3791;SDS011;1911;53.768;11.474;2022-07-22T23:32:20;2.93;;;1.80;;
3791;SDS011;1911;53.768;11.474;2022-07-22T23:34:46;2.07;;;1.57;;
3791;SDS011;1911;53.768;11.474;2022-07-22T23:37:12;5.77;;;1.63;;
3791;SDS011;1911;53.768;11.474;2022-07-22T23:39:37;4.80;;;1.60;;
3791;SDS011;1911;53.768;11.474;2022-07-22T23:42:03;5.77;;;1.90;;
3791;SDS011;1911;53.768;11.474;2022-07-22T23:44:29;6.77;;;1.83;;
3791;SDS011;1911;53.768;11.474;2022-07-22T23:46:55;4.03;;;2.13;;
3791;SDS011;1911;53.768;11.474;2022-07-22T23:49:20;2.23;;;1.47;;
3791;SDS011;1911;53.768;11.474;2022-07-22T23:51:46;2.80;;;1.83;;
3791;SDS011;1911;53.768;11.474;2022-07-22T23:54:12;3.93;;;1.90;;
3791;SDS011;1911;53.768;11.474;2022-07-22T23:56:37;2.77;;;1.20;;
3791;SDS011;1911;53.768;11.474;2022-07-22T23:59:03;4.97;;;1.60;;
